Time;durP1;ratioP1;P1;durP2;ratioP2;P2;SDS_P1;SDS_P2;PMS_P1;PMS_P2;Temp;Humidity;BMP_temperature;BMP_pressure;BME280_temperature;BME280_humidity;BME280_pressure;Samples;Min_cycle;Max_cycle;Signal;HPM_P1;HPM_P2
2022/09/22 00:01:08;;;;;;;1.77;0.90;;;21.70;68.40;;;;;;4087631;28;20047;-40
2022/09/22 00:03:36;;;;;;;3.05;1.15;;;21.70;68.20;;;;;;4091092;28;20071;-39
2022/09/22 00:06:04;;;;;;;2.58;1.02;;;21.70;68.30;;;;;;4086997;28;20039;-40
2022/09/22 00:08:29;;;;;;;4.88;1.02;;;21.80;68.30;;;;;;4087524;28;20130;-39
2022/09/22 00:11:22;;;;;;;5.65;1.13;;;21.70;68.30;;;;;;4090421;28;20055;-42
2022/09/22 00:13:51;;;;;;;6.15;1.45;;;21.70;68.20;;;;;;4088364;28;20050;-40
2022/09/22 00:16:14;;;;;;;3.83;0.90;;;21.70;68.20;;;;;;4091034;28;20523;-39
2022/09/22 00:18:37;;;;;;;2.58;1.27;;;21.70;68.30;;;;;;4090495;28;20094;-43
2022/09/22 00:21:08;;;;;;;4.00;0.97;;;21.70;68.20;;;;;;4089083;28;20231;-39
2022/09/22 00:23:31;;;;;;;2.60;0.85;;;21.70;68.10;;;;;;4091489;28;20702;-44
2022/09/22 00:25:54;;;;;;;1.17;0.60;;;21.70;68.20;;;;;;4091473;28;20142;-40
2022/09/22 00:28:18;;;;;;;3.95;1.38;;;21.70;68.20;;;;;;4089412;28;20483;-43
2022/09/22 00:30:42;;;;;;;3.65;0.88;;;21.70;68.20;;;;;;4091822;28;20049;-43
2022/09/22 00:33:04;;;;;;;4.13;1.20;;;21.70;68.20;;;;;;4089637;28;20057;-38
2022/09/22 00:35:27;;;;;;;4.40;1.75;;;21.70;67.70;;;;;;4089242;28;20039;-39
2022/09/22 00:37:50;;;;;;;5.05;1.63;;;21.70;66.80;;;;;;4090965;28;20036;-37
2022/09/22 00:40:12;;;;;;;6.18;1.85;;;21.70;66.30;;;;;;4085421;28;20122;-38
2022/09/22 00:42:35;;;;;;;5.25;1.58;;;21.70;66.50;;;;;;4089586;28;20106;-37
2022/09/22 00:44:58;;;;;;;10.07;1.55;;;21.70;67.00;;;;;;4091929;28;20062;-36
2022/09/22 00:47:32;;;;;;;7.30;1.67;;;21.70;67.30;;;;;;4091883;28;20487;-36
2022/09/22 00:50:03;;;;;;;;;;;21.70;67.50;;;;;;4082620;28;20052;-36
2022/09/22 00:52:48;;;;;;;9.20;1.55;;;21.70;67.50;;;;;;4081712;28;20373;-37
2022/09/22 00:55:22;;;;;;;5.43;1.58;;;21.70;67.30;;;;;;4088339;28;20035;-38
2022/09/22 00:57:47;;;;;;;3.90;1.33;;;21.70;67.10;;;;;;4086071;28;20101;-38
2022/09/22 01:00:11;;;;;;;3.05;1.30;;;21.70;67.00;;;;;;4082036;28;20046;-37
2022/09/22 01:02:34;;;;;;;4.28;1.30;;;21.70;66.80;;;;;;4080730;28;20574;-37
2022/09/22 01:04:59;;;;;;;4.28;1.58;;;21.80;66.80;;;;;;4090019;28;20458;-38
2022/09/22 01:07:27;;;;;;;4.80;1.17;;;21.70;66.70;;;;;;4089491;28;20102;-36
2022/09/22 01:09:51;;;;;;;5.35;1.20;;;21.80;66.60;;;;;;4080937;28;20141;-36
2022/09/22 01:12:14;;;;;;;2.72;1.20;;;21.70;66.50;;;;;;4088684;28;20038;-37
2022/09/22 01:15:04;;;;;;;3.05;1.17;;;21.70;66.40;;;;;;4090471;28;20057;-37
2022/09/22 01:17:34;;;;;;;2.92;0.93;;;21.70;66.40;;;;;;4088203;28;20138;-38
2022/09/22 01:20:20;;;;;;;2.42;1.23;;;21.70;66.30;;;;;;4085190;28;20551;-37
2022/09/22 01:23:19;;;;;;;3.10;1.10;;;21.70;66.20;;;;;;4090299;28;20445;-37
2022/09/22 01:26:01;;;;;;;3.17;1.10;;;21.70;66.30;;;;;;4085992;28;20051;-37
2022/09/22 01:28:49;;;;;;;3.50;0.70;;;21.70;66.20;;;;;;4091863;28;20039;-38
2022/09/22 01:31:23;;;;;;;4.75;1.25;;;21.70;66.20;;;;;;4080336;28;20048;-39
2022/09/22 01:34:07;;;;;;;3.38;1.10;;;21.70;66.10;;;;;;4084968;28;20155;-38
2022/09/22 01:36:48;;;;;;;3.22;0.95;;;21.70;66.10;;;;;;4086978;28;20447;-37
2022/09/22 01:39:39;;;;;;;3.63;0.90;;;21.70;66.00;;;;;;4086520;28;20110;-38
2022/09/22 01:42:12;;;;;;;2.30;0.88;;;21.70;66.00;;;;;;4090609;28;20113;-37
2022/09/22 01:45:07;;;;;;;3.25;1.10;;;21.70;66.00;;;;;;4087371;28;20043;-37
2022/09/22 01:48:12;;;;;;;3.08;0.73;;;21.70;65.90;;;;;;4092624;28;20047;-39
2022/09/22 01:50:50;;;;;;;1.67;0.63;;;21.60;65.80;;;;;;4058008;29;20561;-37
2022/09/22 01:53:19;;;;;;;1.38;0.80;;;21.60;65.80;;;;;;4060127;29;20214;-37
2022/09/22 01:55:47;;;;;;;1.85;0.77;;;21.60;65.80;;;;;;4083202;28;20061;-37
2022/09/22 01:58:19;;;;;;;1.75;0.73;;;21.60;65.80;;;;;;4093501;28;20074;-38
2022/09/22 02:01:14;;;;;;;2.78;0.80;;;21.60;65.80;;;;;;4083692;28;20049;-36
2022/09/22 02:03:40;;;;;;;;;;;21.60;65.70;;;;;;4078663;28;20047;-37
2022/09/22 02:06:26;;;;;;;1.88;0.75;;;21.60;65.80;;;;;;4081434;28;20014;-38
2022/09/22 02:09:05;;;;;;;2.70;1.10;;;21.60;65.80;;;;;;4083741;28;20055;-37
2022/09/22 02:11:28;;;;;;;2.42;0.88;;;21.60;65.80;;;;;;4090194;28;20692;-37
2022/09/22 02:13:51;;;;;;;1.70;0.82;;;21.60;65.70;;;;;;4092342;28;20073;-37
2022/09/22 02:16:18;;;;;;;0.90;0.80;;;21.60;65.70;;;;;;4092601;28;20416;-38
2022/09/22 02:19:01;;;;;;;2.90;0.90;;;21.60;65.70;;;;;;4090363;28;20075;-38
2022/09/22 02:21:29;;;;;;;3.60;1.08;;;21.60;65.80;;;;;;4097101;28;20047;-37
2022/09/22 02:23:51;;;;;;;2.83;1.05;;;21.60;65.80;;;;;;4088944;28;20046;-38
2022/09/22 02:26:22;;;;;;;1.55;0.82;;;21.60;65.70;;;;;;4087420;28;20043;-37
2022/09/22 02:28:45;;;;;;;1.42;0.70;;;21.60;65.70;;;;;;4086843;28;20047;-38
2022/09/22 02:31:09;;;;;;;2.42;1.00;;;21.60;65.70;;;;;;4092447;28;20046;-37
2022/09/22 02:33:33;;;;;;;;;;;21.60;65.70;;;;;;4090733;28;20550;-38
2022/09/22 02:36:04;;;;;;;3.90;1.00;;;21.60;65.60;;;;;;4090541;28;20744;-37
2022/09/22 02:38:57;;;;;;;1.90;0.60;;;21.60;65.50;;;;;;4090880;28;20039;-38
2022/09/22 02:41:35;;;;;;;1.52;0.70;;;21.60;65.50;;;;;;4087923;28;20039;-37
2022/09/22 02:44:13;;;;;;;3.10;1.17;;;21.60;65.40;;;;;;4088762;28;20253;-37
2022/09/22 02:46:55;;;;;;;2.25;0.70;;;21.60;65.30;;;;;;4089360;28;20435;-38
2022/09/22 02:49:18;;;;;;;2.20;0.93;;;21.60;65.10;;;;;;4084221;28;20043;-38
2022/09/22 02:51:42;;;;;;;1.25;0.73;;;21.60;65.00;;;;;;4084279;28;20051;-37
2022/09/22 02:54:05;;;;;;;1.63;0.77;;;21.60;65.00;;;;;;4089926;28;20102;-38
2022/09/22 02:56:28;;;;;;;1.85;0.93;;;21.60;65.00;;;;;;4089462;28;20317;-38
2022/09/22 02:58:51;;;;;;;2.47;0.90;;;21.60;64.80;;;;;;4086911;28;20055;-37
2022/09/22 03:01:13;;;;;;;2.07;1.00;;;21.60;64.80;;;;;;4092121;28;20589;-37
2022/09/22 03:03:36;;;;;;;3.83;1.10;;;21.60;64.70;;;;;;4089284;28;20035;-37
2022/09/22 03:05:59;;;;;;;1.42;0.85;;;21.60;64.70;;;;;;4092844;28;20035;-37
2022/09/22 03:08:21;;;;;;;2.25;0.77;;;21.60;64.70;;;;;;4091315;28;20446;-37
2022/09/22 03:10:44;;;;;;;2.95;1.05;;;21.60;64.70;;;;;;4093657;28;20657;-37
2022/09/22 03:13:07;;;;;;;3.20;1.13;;;21.60;64.60;;;;;;4091610;28;20031;-36
2022/09/22 03:15:30;;;;;;;3.80;0.95;;;21.60;64.50;;;;;;4097952;28;20034;-42
2022/09/22 03:17:52;;;;;;;1.52;0.90;;;21.60;64.60;;;;;;4095554;28;20035;-40
2022/09/22 03:20:16;;;;;;;1.90;1.15;;;21.60;64.50;;;;;;4090340;28;20046;-44
2022/09/22 03:22:39;;;;;;;1.67;0.60;;;21.60;64.50;;;;;;4084601;28;20028;-41
2022/09/22 03:25:01;;;;;;;1.02;0.73;;;21.60;65.20;;;;;;4092531;28;20043;-38
2022/09/22 03:27:24;;;;;;;1.67;0.90;;;21.60;64.60;;;;;;4090600;28;20507;-38
2022/09/22 03:29:47;;;;;;;0.95;0.70;;;21.60;64.60;;;;;;4088645;28;20091;-37
2022/09/22 03:32:09;;;;;;;1.48;0.65;;;21.60;64.60;;;;;;4087272;28;20336;-38
2022/09/22 03:34:32;;;;;;;2.00;0.93;;;21.60;64.50;;;;;;4087935;28;20043;-37
2022/09/22 03:36:54;;;;;;;2.95;0.80;;;21.60;64.50;;;;;;4088248;28;20090;-37
2022/09/22 03:39:17;;;;;;;2.40;0.77;;;21.60;64.50;;;;;;4094089;28;20046;-37
2022/09/22 03:41:39;;;;;;;1.45;0.73;;;21.60;64.50;;;;;;4088474;28;20035;-36
2022/09/22 03:44:04;;;;;;;1.88;0.90;;;21.60;64.50;;;;;;4072352;29;20053;-37
2022/09/22 03:46:28;;;;;;;1.77;0.70;;;21.60;64.40;;;;;;4071150;29;20040;-37
2022/09/22 03:48:50;;;;;;;;;;;21.60;64.40;;;;;;4077827;29;20069;-36
2022/09/22 03:51:13;;;;;;;1.65;0.85;;;21.60;64.40;;;;;;4079927;29;20788;-36
2022/09/22 03:53:36;;;;;;;1.02;0.60;;;21.60;64.40;;;;;;4070806;29;20050;-37
2022/09/22 03:56:13;;;;;;;1.35;0.80;;;21.60;64.30;;;;;;4078594;29;20097;-37
2022/09/22 03:58:37;;;;;;;0.88;0.70;;;21.60;64.40;;;;;;4074523;29;20341;-37
2022/09/22 04:00:59;;;;;;;1.35;0.73;;;21.60;64.30;;;;;;4055486;29;20039;-37
2022/09/22 04:03:23;;;;;;;1.17;0.50;;;21.60;64.20;;;;;;4060271;28;20428;-37
2022/09/22 04:05:54;;;;;;;1.88;0.77;;;21.60;64.20;;;;;;4049657;29;20583;-38
2022/09/22 04:08:18;;;;;;;2.17;1.00;;;21.60;64.10;;;;;;4049921;29;20044;-37
2022/09/22 04:10:47;;;;;;;1.30;0.65;;;21.60;64.20;;;;;;4064262;29;20052;-36
2022/09/22 04:13:10;;;;;;;1.48;0.85;;;21.60;64.10;;;;;;4064683;29;20523;-36
2022/09/22 04:15:33;;;;;;;2.00;0.68;;;21.60;64.10;;;;;;4061928;29;20059;-37
2022/09/22 04:17:56;;;;;;;0.70;0.50;;;21.60;64.20;;;;;;4062689;29;20074;-37
2022/09/22 04:20:23;;;;;;;2.20;0.70;;;21.60;64.10;;;;;;4062628;29;20051;-37
2022/09/22 04:22:51;;;;;;;1.65;0.88;;;21.60;64.10;;;;;;4063390;29;20042;-36
2022/09/22 04:25:14;;;;;;;1.25;0.50;;;21.60;64.10;;;;;;4067962;29;20263;-37
2022/09/22 04:27:37;;;;;;;1.75;0.90;;;21.60;64.10;;;;;;4064580;29;20051;-37
2022/09/22 04:30:00;;;;;;;1.30;0.68;;;21.60;64.10;;;;;;4071831;29;20087;-36
2022/09/22 04:32:23;;;;;;;1.63;0.60;;;21.60;64.10;;;;;;4077101;29;20493;-37
2022/09/22 04:34:47;;;;;;;0.75;0.50;;;21.60;64.10;;;;;;4077000;29;20035;-37
2022/09/22 04:37:10;;;;;;;2.10;0.68;;;21.60;64.00;;;;;;4072239;29;20806;-38
2022/09/22 04:39:33;;;;;;;0.55;0.40;;;21.60;64.10;;;;;;4076283;29;20040;-37
2022/09/22 04:41:56;;;;;;;1.95;0.88;;;21.60;64.10;;;;;;4079091;28;20040;-38
2022/09/22 04:44:18;;;;;;;0.88;0.57;;;21.60;64.10;;;;;;4090901;28;20047;-37
2022/09/22 04:46:44;;;;;;;1.42;0.77;;;21.60;64.10;;;;;;4094318;28;20039;-39
2022/09/22 04:49:07;;;;;;;1.55;0.80;;;21.60;64.70;;;;;;4093710;28;20102;-38
2022/09/22 04:51:29;;;;;;;1.55;0.63;;;21.60;64.10;;;;;;4092521;28;20051;-37
2022/09/22 04:53:52;;;;;;;3.20;1.17;;;21.60;64.10;;;;;;4089400;28;20043;-37
2022/09/22 04:56:15;;;;;;;2.60;0.70;;;21.60;64.10;;;;;;4092656;28;20039;-37
2022/09/22 04:58:37;;;;;;;1.38;0.63;;;21.60;64.10;;;;;;4089955;28;20166;-36
2022/09/22 05:01:05;;;;;;;0.55;0.50;;;21.60;64.10;;;;;;4091313;28;20047;-37
2022/09/22 05:03:28;;;;;;;1.20;0.55;;;21.60;64.10;;;;;;4090948;28;20039;-37
2022/09/22 05:05:50;;;;;;;1.35;0.60;;;21.60;64.10;;;;;;4087817;28;20036;-38
2022/09/22 05:08:14;;;;;;;1.67;0.70;;;21.60;64.10;;;;;;4087565;28;20039;-37
2022/09/22 05:10:36;;;;;;;2.10;0.63;;;21.50;64.10;;;;;;4091826;28;20043;-38
2022/09/22 05:12:59;;;;;;;0.80;0.50;;;21.50;64.10;;;;;;4082437;28;20534;-37
2022/09/22 05:15:21;;;;;;;1.95;0.82;;;21.50;64.10;;;;;;4090283;28;20106;-38
2022/09/22 05:17:49;;;;;;;1.63;0.80;;;21.50;64.10;;;;;;4093480;28;20051;-37
2022/09/22 05:20:11;;;;;;;1.35;0.60;;;21.50;64.10;;;;;;4090475;28;20039;-37
2022/09/22 05:22:34;;;;;;;1.90;0.70;;;21.50;64.10;;;;;;4086299;28;20043;-37
2022/09/22 05:24:57;;;;;;;0.63;0.45;;;21.50;64.10;;;;;;4094409;28;20047;-36
2022/09/22 05:27:19;;;;;;;0.93;0.70;;;21.50;64.10;;;;;;4082762;28;20135;-36
2022/09/22 05:29:42;;;;;;;0.95;0.50;;;21.50;64.10;;;;;;4082689;28;20036;-38
2022/09/22 05:32:04;;;;;;;1.15;0.57;;;21.50;64.10;;;;;;4091769;28;20119;-37
2022/09/22 05:34:27;;;;;;;1.42;0.70;;;21.50;64.00;;;;;;4087546;28;20035;-37
2022/09/22 05:36:50;;;;;;;1.10;0.65;;;21.50;64.00;;;;;;4090426;28;20054;-37
2022/09/22 05:39:12;;;;;;;1.70;0.93;;;21.50;64.00;;;;;;4087500;28;20039;-38
2022/09/22 05:41:35;;;;;;;1.63;0.70;;;21.50;64.00;;;;;;4088378;28;20455;-37
2022/09/22 05:43:57;;;;;;;1.92;0.70;;;21.50;63.90;;;;;;4087486;28;20134;-38
2022/09/22 05:46:20;;;;;;;1.40;0.85;;;21.50;64.00;;;;;;4088506;28;20031;-37
2022/09/22 05:48:42;;;;;;;2.38;0.73;;;21.50;64.00;;;;;;4086198;28;20047;-36
2022/09/22 05:51:05;;;;;;;1.67;0.57;;;21.50;63.90;;;;;;4082813;29;20058;-36
2022/09/22 05:53:28;;;;;;;2.25;0.63;;;21.50;63.90;;;;;;4093082;28;20039;-38
2022/09/22 05:55:50;;;;;;;1.58;0.57;;;21.50;63.90;;;;;;4084309;28;20058;-35
2022/09/22 05:58:13;;;;;;;1.27;0.47;;;21.50;63.90;;;;;;4090418;28;20465;-38
2022/09/22 06:00:35;;;;;;;1.30;0.75;;;21.50;63.90;;;;;;4086503;28;20122;-37
2022/09/22 06:02:58;;;;;;;1.75;0.50;;;21.50;63.80;;;;;;4083680;28;20063;-37
2022/09/22 06:05:21;;;;;;;1.23;0.60;;;21.50;63.80;;;;;;4088499;28;20682;-37
2022/09/22 06:07:44;;;;;;;0.65;0.50;;;21.50;63.80;;;;;;4085878;28;20119;-37
2022/09/22 06:10:10;;;;;;;1.33;0.50;;;21.50;63.80;;;;;;4079694;28;20151;-37
2022/09/22 06:12:33;;;;;;;2.28;0.90;;;21.50;63.80;;;;;;4092760;28;20045;-38
2022/09/22 06:14:55;;;;;;;1.92;0.90;;;21.50;63.80;;;;;;4088233;28;20047;-37
2022/09/22 06:17:18;;;;;;;1.45;0.77;;;21.50;63.80;;;;;;4088159;28;20043;-37
2022/09/22 06:19:42;;;;;;;3.00;0.95;;;21.50;63.80;;;;;;4086484;28;21648;-37
2022/09/22 06:22:04;;;;;;;1.13;0.65;;;21.50;63.80;;;;;;4087590;28;20043;-37
2022/09/22 06:24:27;;;;;;;0.93;0.60;;;21.50;63.80;;;;;;4088568;28;20105;-37
2022/09/22 06:26:50;;;;;;;1.63;0.60;;;21.50;63.90;;;;;;4088684;28;20109;-37
2022/09/22 06:29:13;;;;;;;3.00;1.13;;;21.50;63.80;;;;;;4091792;28;20039;-38
2022/09/22 06:31:36;;;;;;;1.20;0.60;;;21.40;63.80;;;;;;4092990;28;20057;-38
2022/09/22 06:33:58;;;;;;;1.50;0.70;;;21.50;63.90;;;;;;4087116;28;20460;-38
2022/09/22 06:36:30;;;;;;;1.80;0.82;;;21.40;63.80;;;;;;4087275;28;20444;-38
2022/09/22 06:38:54;;;;;;;1.48;0.60;;;21.40;63.80;;;;;;4089133;28;20110;-38
2022/09/22 06:41:17;;;;;;;1.55;0.90;;;21.40;63.80;;;;;;4087503;28;20043;-39
2022/09/22 06:43:41;;;;;;;1.13;0.43;;;21.40;63.80;;;;;;4074000;29;20584;-38
2022/09/22 06:46:03;;;;;;;0.50;0.50;;;21.40;63.80;;;;;;4076242;29;20121;-37
2022/09/22 06:48:26;;;;;;;1.55;0.95;;;21.40;63.80;;;;;;4077187;28;20164;-37
2022/09/22 06:50:51;;;;;;;1.13;0.43;;;21.40;63.80;;;;;;4075448;29;20455;-38
2022/09/22 06:53:13;;;;;;;0.77;0.50;;;21.40;63.80;;;;;;4065231;29;20452;-39
2022/09/22 06:55:36;;;;;;;0.80;0.50;;;21.40;64.50;;;;;;4073141;29;20115;-38
2022/09/22 06:58:00;;;;;;;0.82;0.70;;;21.40;63.80;;;;;;4075097;29;20040;-39
2022/09/22 07:00:23;;;;;;;1.17;0.60;;;21.40;63.90;;;;;;4063238;29;20039;-38
2022/09/22 07:02:46;;;;;;;1.15;0.70;;;21.40;63.80;;;;;;4061505;29;20032;-37
2022/09/22 07:05:09;;;;;;;0.85;0.68;;;21.40;63.90;;;;;;4068157;29;20067;-38
2022/09/22 07:07:31;;;;;;;1.75;0.70;;;21.40;63.90;;;;;;4066639;29;20110;-38
2022/09/22 07:09:55;;;;;;;2.58;0.70;;;21.40;63.90;;;;;;4063881;29;20425;-38
2022/09/22 07:12:18;;;;;;;1.90;0.73;;;21.40;63.80;;;;;;4066445;29;20040;-37
2022/09/22 07:14:42;;;;;;;1.05;0.60;;;21.40;63.90;;;;;;4066112;29;20036;-38
2022/09/22 07:17:05;;;;;;;1.55;0.70;;;21.40;63.90;;;;;;4068554;29;20373;-37
2022/09/22 07:19:33;;;;;;;1.55;0.75;;;21.40;63.90;;;;;;4071256;28;20120;-37
2022/09/22 07:21:56;;;;;;;1.58;0.60;;;21.30;63.90;;;;;;4064365;29;20047;-37
2022/09/22 07:24:18;;;;;;;0.98;0.60;;;21.30;63.80;;;;;;4067928;29;20484;-37
2022/09/22 07:26:41;;;;;;;2.10;0.77;;;21.30;63.80;;;;;;4067433;29;20412;-37
2022/09/22 07:29:12;;;;;;;1.17;0.55;;;21.30;63.80;;;;;;4076246;29;20074;-37
2022/09/22 07:31:35;;;;;;;0.90;0.65;;;21.30;63.80;;;;;;4073332;29;20086;-37
2022/09/22 07:34:01;;;;;;;1.60;0.80;;;21.30;63.80;;;;;;4072257;29;20072;-37
2022/09/22 07:36:25;;;;;;;1.63;0.75;;;21.30;63.80;;;;;;4075123;29;20532;-38
2022/09/22 07:38:50;;;;;;;1.17;0.70;;;21.30;63.80;;;;;;4069359;29;20039;-37
2022/09/22 07:41:19;;;;;;;1.50;0.70;;;21.30;63.80;;;;;;4055015;29;20040;-37
2022/09/22 07:43:42;;;;;;;1.30;0.63;;;21.30;63.80;;;;;;4077658;28;20292;-36
2022/09/22 07:46:05;;;;;;;1.05;0.73;;;21.30;63.80;;;;;;4090564;28;20395;-36
2022/09/22 07:48:47;;;;;;;1.30;0.63;;;21.30;63.80;;;;;;4089939;28;20039;-37
2022/09/22 07:51:12;;;;;;;1.77;1.00;;;21.30;63.80;;;;;;4089673;28;20194;-37
2022/09/22 07:53:36;;;;;;;2.33;0.90;;;21.30;63.80;;;;;;4090391;28;20484;-36
2022/09/22 07:56:29;;;;;;;2.35;1.00;;;21.30;63.80;;;;;;4089852;28;20488;-36
2022/09/22 07:58:53;;;;;;;1.02;0.88;;;21.30;63.80;;;;;;4081955;28;20115;-37
2022/09/22 08:01:16;;;;;;;;;;;21.30;63.80;;;;;;4084738;28;20058;-38
2022/09/22 08:03:39;;;;;;;1.40;1.02;;;21.30;63.90;;;;;;4089788;28;19999;-36
2022/09/22 08:06:09;;;;;;;1.57;0.90;;;21.30;63.90;;;;;;4088051;28;20039;-37
2022/09/22 08:08:33;;;;;;;2.00;1.05;;;21.20;63.80;;;;;;4085544;28;20044;-37
2022/09/22 08:11:04;;;;;;;1.98;1.10;;;21.20;63.80;;;;;;4086418;28;20471;-37
2022/09/22 08:13:27;;;;;;;2.30;1.20;;;21.20;63.80;;;;;;4078416;28;20039;-37
2022/09/22 08:15:54;;;;;;;1.58;1.10;;;21.20;63.90;;;;;;4077966;28;20048;-37
2022/09/22 08:18:17;;;;;;;2.60;1.55;;;21.20;63.90;;;;;;4088593;28;20035;-37
2022/09/22 08:20:42;;;;;;;1.63;1.15;;;21.20;64.00;;;;;;4084937;28;20456;-37
2022/09/22 08:23:05;;;;;;;2.40;1.33;;;21.20;64.00;;;;;;4086443;28;20071;-37
2022/09/22 08:25:28;;;;;;;2.30;1.40;;;21.20;64.00;;;;;;4074439;28;20043;-38
2022/09/22 08:27:50;;;;;;;2.85;1.63;;;21.20;64.00;;;;;;4079706;28;20047;-37
2022/09/22 08:30:13;;;;;;;2.15;1.25;;;21.20;64.00;;;;;;4086554;28;20125;-38
2022/09/22 08:32:36;;;;;;;1.52;1.30;;;21.20;64.00;;;;;;4083157;28;20123;-38
2022/09/22 08:34:58;;;;;;;2.58;1.38;;;21.20;64.00;;;;;;4081333;28;20381;-36
2022/09/22 08:37:22;;;;;;;3.08;1.33;;;21.20;64.00;;;;;;4079883;28;20047;-37
2022/09/22 08:39:44;;;;;;;1.48;1.13;;;21.20;64.10;;;;;;4082529;28;20126;-37
2022/09/22 08:42:20;;;;;;;2.72;1.70;;;21.20;64.20;;;;;;4082699;28;20050;-38
2022/09/22 08:45:08;;;;;;;2.97;1.52;;;21.10;64.10;;;;;;4075412;28;20571;-38
2022/09/22 08:53:14;;;;;;;3.83;1.65;;;21.10;64.20;;;;;;4082344;28;20044;-37
2022/09/22 08:55:41;;;;;;;2.47;1.55;;;21.10;64.20;;;;;;4076614;28;20047;-38
2022/09/22 08:58:32;;;;;;;3.10;1.80;;;21.10;64.20;;;;;;4077116;28;20039;-37
2022/09/22 09:01:13;;;;;;;2.42;1.40;;;21.10;64.20;;;;;;4086555;28;20078;-38
2022/09/22 09:03:53;;;;;;;2.47;1.48;;;21.10;64.20;;;;;;4084212;28;20432;-37
2022/09/22 09:06:39;;;;;;;2.65;1.60;;;21.10;64.20;;;;;;4086222;28;20043;-37
2022/09/22 09:09:07;;;;;;;2.80;1.50;;;21.10;64.20;;;;;;4082537;28;20129;-37
2022/09/22 09:12:05;;;;;;;2.05;1.13;;;21.10;64.30;;;;;;4082879;28;20055;-37
2022/09/22 09:14:33;;;;;;;3.92;1.60;;;21.10;64.20;;;;;;4089779;28;20384;-36
2022/09/22 09:17:29;;;;;;;2.70;1.25;;;21.10;64.30;;;;;;4087557;28;20042;-37
2022/09/22 09:19:57;;;;;;;2.35;1.30;;;21.10;64.30;;;;;;4088331;28;20082;-37
2022/09/22 09:22:33;;;;;;;1.63;1.00;;;21.10;64.30;;;;;;4087432;28;20039;-37
2022/09/22 09:25:21;;;;;;;1.52;1.05;;;21.10;64.40;;;;;;4090951;28;20039;-37
2022/09/22 09:27:48;;;;;;;2.35;1.40;;;21.10;64.20;;;;;;4083282;28;20039;-37
2022/09/22 09:30:18;;;;;;;3.22;1.48;;;21.00;64.30;;;;;;4089985;28;20571;-38
2022/09/22 09:32:53;;;;;;;2.97;1.23;;;21.10;64.30;;;;;;4087632;28;20048;-37
2022/09/22 09:35:25;;;;;;;2.55;1.50;;;21.00;64.30;;;;;;4086022;28;20381;-37
2022/09/22 09:37:48;;;;;;;2.75;1.10;;;21.00;64.40;;;;;;4084248;28;20324;-37
2022/09/22 09:40:16;;;;;;;1.73;1.00;;;21.00;64.30;;;;;;4082011;28;20079;-38
2022/09/22 09:42:39;;;;;;;2.83;1.08;;;21.00;64.40;;;;;;4081576;28;20091;-36
2022/09/22 09:45:03;;;;;;;1.35;0.98;;;21.00;64.40;;;;;;4082745;28;20047;-36
2022/09/22 09:47:39;;;;;;;1.35;0.93;;;21.00;64.40;;;;;;4084727;28;20364;-37
2022/09/22 09:50:02;;;;;;;1.58;0.90;;;21.00;64.40;;;;;;4081390;28;20051;-39
2022/09/22 09:52:27;;;;;;;2.03;1.20;;;21.00;64.30;;;;;;4085889;28;20047;-37
2022/09/22 09:54:50;;;;;;;2.05;1.20;;;21.00;64.40;;;;;;4082742;28;20049;-38
2022/09/22 09:57:18;;;;;;;1.42;0.90;;;21.00;64.40;;;;;;4082445;28;20039;-37
2022/09/22 10:02:31;;;;;;;1.25;0.90;;;21.00;64.40;;;;;;4086116;28;20385;-36
2022/09/22 10:05:03;;;;;;;2.22;1.17;;;21.00;64.40;;;;;;4090528;28;20043;-37
2022/09/22 10:07:38;;;;;;;1.08;0.77;;;21.00;64.50;;;;;;4091064;28;20038;-37
2022/09/22 10:10:28;;;;;;;1.27;0.98;;;21.00;64.50;;;;;;4090947;28;20118;-39
2022/09/22 10:12:51;;;;;;;1.50;1.00;;;21.00;64.40;;;;;;4089529;28;20397;-38
2022/09/22 10:15:26;;;;;;;1.45;0.90;;;21.00;64.40;;;;;;4090457;28;20047;-37
2022/09/22 10:17:50;;;;;;;1.50;0.82;;;20.90;64.40;;;;;;4091011;28;20042;-38
2022/09/22 10:20:21;;;;;;;1.40;0.80;;;20.90;64.50;;;;;;4087830;28;20039;-38
2022/09/22 10:22:44;;;;;;;0.98;0.80;;;20.90;64.40;;;;;;4089890;28;20043;-38
2022/09/22 10:25:32;;;;;;;1.20;0.70;;;20.90;64.40;;;;;;4092564;28;20467;-39
2022/09/22 10:28:13;;;;;;;0.70;0.70;;;20.90;64.50;;;;;;4088481;28;20063;-36
2022/09/22 10:30:37;;;;;;;1.92;0.80;;;21.00;64.60;;;;;;4090459;28;20060;-37
2022/09/22 10:33:20;;;;;;;1.23;0.80;;;20.90;64.60;;;;;;4090379;28;20047;-37
2022/09/22 10:36:07;;;;;;;0.70;0.68;;;20.90;64.60;;;;;;4103830;28;20039;-37
2022/09/22 10:38:34;;;;;;;0.63;0.63;;;20.90;65.20;;;;;;4087199;28;20130;-37
2022/09/22 10:41:06;;;;;;;2.47;0.95;;;20.90;64.60;;;;;;4088735;28;20035;-38
2022/09/22 10:43:54;;;;;;;1.13;0.80;;;20.90;64.60;;;;;;4088813;28;20165;-36
2022/09/22 10:46:27;;;;;;;0.68;0.68;;;20.90;64.60;;;;;;4087713;28;20072;-41
2022/09/22 10:48:59;;;;;;;1.00;0.90;;;20.90;64.60;;;;;;4086410;28;20051;-37
2022/09/22 10:51:42;;;;;;;0.88;0.77;;;20.90;64.50;;;;;;4086076;28;20055;-39
2022/09/22 10:54:56;;;;;;;1.20;0.70;;;20.90;64.60;;;;;;4088092;28;20570;-37
2022/09/22 10:57:31;;;;;;;2.28;0.60;;;20.90;64.60;;;;;;4090110;28;20031;-38
2022/09/22 11:00:10;;;;;;;1.73;1.00;;;20.90;64.70;;;;;;4092229;28;20047;-37
2022/09/22 11:02:54;;;;;;;1.42;0.90;;;20.90;64.60;;;;;;4088298;28;20039;-36
2022/09/22 11:14:23;;;;;;;1.27;0.82;;;20.80;64.70;;;;;;4088464;28;20409;-37
2022/09/22 11:17:06;;;;;;;1.15;0.73;;;20.80;64.70;;;;;;4087597;28;20059;-37
2022/09/22 11:19:41;;;;;;;1.13;0.70;;;20.80;64.80;;;;;;4088839;28;20046;-37
2022/09/22 11:22:19;;;;;;;0.88;0.60;;;20.80;64.70;;;;;;4087892;28;20039;-37
2022/09/22 11:25:09;;;;;;;0.60;0.60;;;20.80;64.70;;;;;;4084487;28;20416;-37
2022/09/22 11:27:50;;;;;;;0.98;0.77;;;20.80;64.70;;;;;;4085333;28;20051;-37
2022/09/22 11:30:21;;;;;;;1.25;0.80;;;20.80;64.80;;;;;;4083142;28;20150;-38
2022/09/22 11:33:09;;;;;;;1.30;0.90;;;20.80;64.80;;;;;;4088824;28;20125;-37
2022/09/22 11:35:40;;;;;;;1.50;0.65;;;20.80;64.80;;;;;;4085666;28;20047;-36
2022/09/22 11:38:18;;;;;;;1.15;0.65;;;20.80;64.90;;;;;;4087007;28;20110;-38
2022/09/22 11:41:01;;;;;;;1.08;0.60;;;20.70;64.80;;;;;;4089134;28;20484;-36
2022/09/22 11:43:39;;;;;;;1.25;0.70;;;20.80;64.90;;;;;;4091892;28;20051;-36
2022/09/22 11:46:01;;;;;;;0.90;0.57;;;20.80;64.90;;;;;;4090413;28;20407;-37
2022/09/22 11:48:44;;;;;;;0.85;0.70;;;20.80;64.90;;;;;;4088057;28;20042;-37
2022/09/22 11:51:32;;;;;;;1.33;0.70;;;20.80;64.80;;;;;;4086547;28;20084;-38
2022/09/22 11:54:07;;;;;;;1.33;0.70;;;20.80;64.90;;;;;;4089745;28;20108;-37
2022/09/22 11:56:37;;;;;;;1.30;0.80;;;20.80;65.00;;;;;;4089755;28;20047;-37
2022/09/22 11:59:23;;;;;;;3.00;1.02;;;20.70;64.80;;;;;;4086054;28;20035;-38
2022/09/22 12:01:49;;;;;;;1.67;0.75;;;20.70;65.60;;;;;;4086756;28;20476;-38
2022/09/22 12:04:34;;;;;;;6.60;1.20;;;20.70;65.90;;;;;;4096981;28;20057;-37
2022/09/22 12:06:59;;;;;;;1.95;0.90;;;20.80;66.20;;;;;;4084005;28;20039;-38
2022/09/22 12:09:37;;;;;;;3.03;0.70;;;20.80;66.40;;;;;;4086725;28;20035;-37
2022/09/22 12:12:02;;;;;;;3.80;1.00;;;20.80;66.50;;;;;;4085511;28;20529;-37
2022/09/22 12:14:26;;;;;;;4.20;0.95;;;20.80;66.50;;;;;;4085823;28;20046;-38
2022/09/22 12:16:51;;;;;;;;;;;20.80;66.70;;;;;;4085133;28;20408;-37
2022/09/22 12:19:24;;;;;;;3.45;0.80;;;20.90;66.80;;;;;;4090274;28;19969;-37
2022/09/22 12:21:49;;;;;;;8.43;1.52;;;20.90;66.90;;;;;;4089555;28;20082;-36
2022/09/22 12:24:12;;;;;;;4.72;1.15;;;20.90;66.90;;;;;;4091428;28;20046;-36
2022/09/22 12:26:39;;;;;;;1.75;0.73;;;20.90;66.90;;;;;;4089941;28;20158;-37
2022/09/22 12:29:09;;;;;;;2.30;0.82;;;21.00;66.90;;;;;;4089262;28;20043;-37
2022/09/22 12:31:36;;;;;;;2.72;1.05;;;20.90;66.80;;;;;;4094667;28;20051;-37
2022/09/22 12:33:59;;;;;;;14.13;1.00;;;20.90;66.70;;;;;;4093503;28;20070;-36
2022/09/22 12:36:39;;;;;;;1.92;0.95;;;20.90;66.50;;;;;;4093854;28;20056;-36
2022/09/22 12:39:16;;;;;;;1.90;0.80;;;20.90;66.40;;;;;;4087855;28;20542;-37
2022/09/22 12:41:51;;;;;;;2.70;0.85;;;20.90;66.10;;;;;;4091025;28;20518;-36
2022/09/22 12:44:18;;;;;;;7.72;1.55;;;21.00;66.00;;;;;;4088464;28;20436;-37
2022/09/22 12:46:43;;;;;;;2.58;1.10;;;21.00;66.50;;;;;;4087058;28;20401;-38
2022/09/22 12:49:14;;;;;;;2.65;0.90;;;21.00;66.80;;;;;;4082769;28;20035;-37
2022/09/22 12:51:36;;;;;;;4.95;1.02;;;20.90;66.70;;;;;;4085661;28;20154;-38
2022/09/22 12:54:26;;;;;;;6.25;1.25;;;20.90;67.00;;;;;;4079184;28;20035;-38
2022/09/22 12:57:22;;;;;;;2.33;1.00;;;21.00;67.30;;;;;;4093147;28;20431;-36
2022/09/22 13:00:06;;;;;;;4.78;1.27;;;20.90;67.40;;;;;;4083841;28;20038;-36
2022/09/22 13:02:39;;;;;;;1.55;1.00;;;21.00;67.90;;;;;;4083050;28;20039;-36
2022/09/22 13:05:03;;;;;;;4.13;1.15;;;21.00;68.00;;;;;;4083775;28;20126;-37
2022/09/22 13:07:42;;;;;;;2.25;0.90;;;20.90;68.00;;;;;;4082854;28;20039;-36
2022/09/22 13:10:34;;;;;;;1.90;1.13;;;20.90;68.10;;;;;;4084307;28;20051;-36
2022/09/22 13:15:27;;;;;;;3.72;1.30;;;21.00;68.20;;;;;;4084607;28;20048;-38
2022/09/22 13:17:51;;;;;;;8.90;1.67;;;21.00;68.20;;;;;;4085463;28;20055;-37